createdAt,value
2017-07-18T00:01:58.811Z,3.50
2017-07-18T00:04:27.110Z,3.77
2017-07-18T00:07:10.090Z,2.80
2017-07-18T00:09:38.399Z,4.20
2017-07-18T00:12:07.411Z,3.67
2017-07-18T00:14:35.657Z,4.97
2017-07-18T00:17:03.955Z,3.60
2017-07-18T00:19:32.184Z,4.33
2017-07-18T00:22:13.711Z,3.87
2017-07-18T00:24:41.969Z,3.70
2017-07-18T00:27:10.998Z,3.70
2017-07-18T00:29:39.289Z,3.57
2017-07-18T00:32:07.540Z,3.63
2017-07-18T00:37:37.304Z,3.43
2017-07-18T00:40:05.599Z,3.10
2017-07-18T00:42:33.865Z,4.07
2017-07-18T00:45:02.174Z,4.27
2017-07-18T00:53:30.926Z,4.00
2017-07-18T00:55:59.182Z,4.20
2017-07-18T00:58:27.428Z,3.20
2017-07-18T01:00:55.766Z,3.50
2017-07-18T01:03:50.382Z,3.80
2017-07-18T01:06:19.025Z,4.20
2017-07-18T01:08:47.291Z,3.63
2017-07-18T01:11:16.290Z,3.67
2017-07-18T01:13:44.624Z,3.83
2017-07-18T01:16:25.946Z,3.60
2017-07-18T01:24:54.627Z,3.77
2017-07-18T01:27:23.246Z,4.03
2017-07-18T01:29:51.506Z,3.57
2017-07-18T01:32:20.056Z,4.40
2017-07-18T01:34:48.329Z,4.70
2017-07-18T01:37:16.580Z,3.77
2017-07-18T01:39:44.916Z,4.30
2017-07-18T01:47:57.687Z,5.03
2017-07-18T01:50:25.943Z,5.07
2017-07-18T01:52:55.033Z,3.67
2017-07-18T01:55:23.312Z,4.50
2017-07-18T02:03:52.219Z,4.00
2017-07-18T02:06:20.450Z,7.00
2017-07-18T02:08:48.700Z,5.10
2017-07-18T02:14:37.664Z,3.60
2017-07-18T02:17:05.900Z,4.13
2017-07-18T02:19:34.128Z,3.90
2017-07-18T02:22:03.190Z,4.33
2017-07-18T02:27:32.736Z,4.13
2017-07-18T02:33:01.120Z,4.00
2017-07-18T02:35:29.368Z,4.30
2017-07-18T02:40:58.546Z,4.17
2017-07-18T02:43:38.784Z,4.33
2017-07-18T02:46:07.081Z,4.20
2017-07-18T02:48:36.099Z,4.20
2017-07-18T02:51:04.351Z,3.73
2017-07-18T02:59:34.069Z,4.23
2017-07-18T03:02:02.309Z,3.73
2017-07-18T03:04:30.600Z,3.87
2017-07-18T03:12:59.918Z,3.97
2017-07-18T03:15:28.180Z,4.50
2017-07-18T03:17:56.428Z,4.03
2017-07-18T03:23:25.737Z,4.97
2017-07-18T03:25:53.985Z,4.50
2017-07-18T03:28:22.235Z,5.20
2017-07-18T03:30:50.567Z,5.40
2017-07-18T03:36:19.470Z,4.30
2017-07-18T03:38:47.704Z,4.30
2017-07-18T03:41:16.024Z,4.30
2017-07-18T03:43:45.041Z,4.00
2017-07-18T03:46:13.301Z,3.67
2017-07-18T03:48:42.342Z,4.63
2017-07-18T03:54:00.465Z,4.33
2017-07-18T03:56:28.781Z,4.70
2017-07-18T03:58:57.060Z,4.43
2017-07-18T04:04:25.634Z,4.10
2017-07-18T04:06:53.886Z,4.30
2017-07-18T04:09:22.913Z,4.20
2017-07-18T04:11:51.188Z,4.97
2017-07-18T04:14:19.450Z,5.53
2017-07-18T04:16:48.087Z,4.20
2017-07-18T04:19:37.038Z,5.20
2017-07-18T04:22:05.320Z,11.70
2017-07-18T04:24:33.578Z,5.03
2017-07-18T04:27:01.875Z,4.97
2017-07-18T04:32:38.622Z,4.33
2017-07-18T04:35:06.928Z,4.47
2017-07-18T04:37:35.176Z,6.87
2017-07-18T04:40:03.483Z,4.80
2017-07-18T04:42:31.738Z,4.40
2017-07-18T04:48:00.437Z,4.40
2017-07-18T04:50:28.690Z,6.77
2017-07-18T04:52:56.944Z,4.80
2017-07-18T04:55:26.298Z,5.40
2017-07-18T04:58:13.992Z,10.93
2017-07-18T05:09:43.736Z,9.93
2017-07-18T05:18:23.462Z,9.93
2017-07-18T05:20:51.704Z,11.07
2017-07-18T05:38:23.715Z,6.97
2017-07-18T05:55:55.609Z,5.40
2017-07-18T05:58:37.266Z,8.20
2017-07-18T06:04:06.477Z,7.77
2017-07-18T06:06:40.353Z,5.97
2017-07-18T06:12:08.697Z,5.60
2017-07-18T06:17:39.046Z,7.80
2017-07-18T06:23:22.803Z,5.80
2017-07-18T06:31:51.599Z,6.80
2017-07-18T06:40:09.364Z,9.23
2017-07-18T06:48:39.035Z,9.43
2017-07-18T06:51:07.629Z,7.07
2017-07-18T07:03:05.413Z,5.73
2017-07-18T07:05:33.698Z,5.23
2017-07-18T07:08:02.313Z,6.57
2017-07-18T07:10:30.635Z,5.50
2017-07-18T07:12:59.644Z,6.93
2017-07-18T07:15:27.902Z,5.77
2017-07-18T07:17:59.374Z,5.43
2017-07-18T07:20:27.647Z,6.20
2017-07-18T07:22:55.897Z,6.03
2017-07-18T07:25:24.928Z,5.67
2017-07-18T07:27:53.184Z,6.00
2017-07-18T07:30:21.761Z,5.37
2017-07-18T07:32:49.999Z,4.97
2017-07-18T07:35:18.503Z,4.93
2017-07-18T07:37:46.835Z,4.90
2017-07-18T07:40:15.093Z,5.17
2017-07-18T07:42:43.336Z,4.23
2017-07-18T07:48:11.889Z,5.03
2017-07-18T07:50:46.729Z,6.43
2017-07-18T07:56:15.806Z,4.67
2017-07-18T07:58:44.037Z,4.60
2017-07-18T08:01:43.474Z,4.30
2017-07-18T08:04:11.702Z,4.27
2017-07-18T08:06:39.956Z,4.10
2017-07-18T08:11:45.475Z,3.97
2017-07-18T08:14:13.793Z,3.17
2017-07-18T08:16:42.045Z,3.13
2017-07-18T08:19:10.301Z,3.23
2017-07-18T08:21:39.638Z,2.90
2017-07-18T08:24:24.766Z,2.40
2017-07-18T08:26:53.851Z,3.30
2017-07-18T08:44:15.839Z,3.77
2017-07-18T08:47:07.387Z,3.50
2017-07-18T08:50:03.337Z,3.13
2017-07-18T08:52:38.234Z,3.13
2017-07-18T08:55:06.542Z,3.10
2017-07-18T08:58:02.540Z,2.77
2017-07-18T09:03:37.986Z,2.63
2017-07-18T09:09:06.848Z,2.50
2017-07-18T09:11:38.417Z,2.80
2017-07-18T09:14:06.739Z,3.07
2017-07-18T09:17:02.532Z,2.90
2017-07-18T09:26:02.979Z,2.40
2017-07-18T09:28:37.671Z,2.53
2017-07-18T09:31:06.083Z,2.50
2017-07-18T09:33:34.305Z,2.77
2017-07-18T09:36:06.119Z,2.90
2017-07-18T09:38:40.585Z,2.60
2017-07-18T09:41:08.865Z,2.60
2017-07-18T09:43:37.128Z,2.37
2017-07-18T09:46:05.388Z,2.83
2017-07-18T09:48:33.694Z,2.80
2017-07-18T09:51:05.262Z,2.80
2017-07-18T09:54:04.667Z,2.90
2017-07-18T09:57:03.576Z,2.67
2017-07-18T09:59:41.900Z,2.97
2017-07-18T10:02:10.125Z,2.50
2017-07-18T10:05:05.091Z,2.53
2017-07-18T10:08:03.981Z,2.27
2017-07-18T10:13:32.127Z,1.93
2017-07-18T10:16:01.141Z,2.70
2017-07-18T10:27:31.179Z,3.00
2017-07-18T10:30:06.424Z,2.40
2017-07-18T10:33:03.291Z,2.80
2017-07-18T10:39:02.773Z,2.77
2017-07-18T10:41:31.043Z,2.23
2017-07-18T10:44:05.421Z,2.80
2017-07-18T10:47:03.926Z,2.83
2017-07-18T10:55:29.617Z,3.00
2017-07-18T10:58:05.027Z,2.30
2017-07-18T11:00:33.423Z,2.60
2017-07-18T11:03:15.289Z,2.90
2017-07-18T11:05:43.630Z,3.00
2017-07-18T11:11:02.802Z,2.43
2017-07-18T11:13:38.680Z,2.87
2017-07-18T11:19:37.991Z,2.60
2017-07-18T11:22:06.998Z,2.60
2017-07-18T11:25:03.356Z,2.80
2017-07-18T11:30:38.961Z,3.13
2017-07-18T11:36:05.153Z,2.60
2017-07-18T11:39:03.060Z,3.30
2017-07-18T11:50:33.343Z,3.00
2017-07-18T11:56:36.282Z,2.67
2017-07-18T11:59:05.423Z,2.60
2017-07-18T12:01:40.804Z,3.03
2017-07-18T12:04:09.052Z,2.37
2017-07-18T12:06:37.310Z,2.77
2017-07-18T12:12:05.752Z,2.50
2017-07-18T12:14:34.020Z,2.80
2017-07-18T12:17:02.246Z,3.33
2017-07-18T12:19:30.562Z,2.47
2017-07-18T12:21:58.815Z,2.43
2017-07-18T12:24:27.055Z,3.00
2017-07-18T12:29:56.064Z,3.00
2017-07-18T12:32:24.323Z,2.63
2017-07-18T12:34:53.364Z,2.90
2017-07-18T12:37:21.666Z,2.73
2017-07-18T12:39:49.894Z,2.80
2017-07-18T12:45:37.739Z,2.37
2017-07-18T12:48:06.738Z,2.90
2017-07-18T12:50:35.780Z,2.40
2017-07-18T12:53:04.006Z,3.03
2017-07-18T12:55:39.487Z,3.10
2017-07-18T13:01:08.119Z,2.33
2017-07-18T13:03:36.383Z,2.80
2017-07-18T13:06:04.658Z,2.23
2017-07-18T13:08:32.894Z,2.53
2017-07-18T13:14:02.363Z,2.83
2017-07-18T13:16:30.609Z,2.83
2017-07-18T13:18:59.549Z,2.80
2017-07-18T13:21:27.870Z,2.63
2017-07-18T13:32:57.951Z,2.40
2017-07-18T13:35:26.203Z,3.13
2017-07-18T13:43:56.509Z,2.90
2017-07-18T13:46:55.397Z,2.63
2017-07-18T13:49:24.379Z,2.70
2017-07-18T14:06:56.816Z,3.20
2017-07-18T14:09:25.080Z,2.70
2017-07-18T14:11:54.070Z,2.73
2017-07-18T14:14:23.688Z,2.53
2017-07-18T14:16:52.683Z,3.30
2017-07-18T14:19:20.934Z,2.77
2017-07-18T14:33:50.399Z,2.17
2017-07-18T14:42:19.711Z,2.87
2017-07-18T14:44:47.950Z,2.67
2017-07-18T14:47:16.947Z,3.63
2017-07-18T14:52:46.007Z,3.20
2017-07-18T14:55:14.255Z,2.50
2017-07-18T14:57:42.510Z,2.37
2017-07-18T15:00:10.811Z,2.50
2017-07-18T15:05:39.672Z,2.80
2017-07-18T15:08:07.941Z,2.90
2017-07-18T15:10:36.165Z,2.90
2017-07-18T15:13:04.578Z,3.57
2017-07-18T15:15:32.794Z,2.77
2017-07-18T15:18:01.791Z,3.10
2017-07-18T15:20:30.079Z,2.70
2017-07-18T15:22:58.333Z,2.70
2017-07-18T15:25:26.587Z,2.53
2017-07-18T15:27:54.874Z,2.93
2017-07-18T15:36:39.470Z,2.73
2017-07-18T15:39:08.503Z,2.73
2017-07-18T15:41:36.764Z,2.37
2017-07-18T15:44:05.048Z,3.00
2017-07-18T15:49:35.259Z,2.90
2017-07-18T15:52:04.267Z,3.00
2017-07-18T15:54:32.731Z,2.80
2017-07-18T16:03:01.934Z,2.53
2017-07-18T16:05:30.168Z,2.40
2017-07-18T16:07:58.477Z,2.97
2017-07-18T16:10:26.778Z,2.53
2017-07-18T16:12:55.013Z,3.50
2017-07-18T16:15:23.259Z,2.97
2017-07-18T16:17:51.541Z,2.40
2017-07-18T16:20:19.808Z,3.00
2017-07-18T16:22:48.904Z,3.00
2017-07-18T16:28:17.348Z,2.40
2017-07-18T16:30:45.642Z,2.40
2017-07-18T16:33:13.890Z,2.43
2017-07-18T16:35:43.268Z,2.70
2017-07-18T16:41:38.485Z,2.50
2017-07-18T16:47:08.162Z,3.00
2017-07-18T16:49:36.394Z,2.50
2017-07-18T16:55:04.805Z,2.67
2017-07-18T17:00:33.115Z,2.67
2017-07-18T17:03:01.425Z,2.30
2017-07-18T17:05:29.653Z,2.43
2017-07-18T17:07:58.158Z,2.93
2017-07-18T17:13:26.718Z,2.40
2017-07-18T17:15:54.964Z,2.20
2017-07-18T17:18:23.223Z,2.53
2017-07-18T17:20:51.513Z,2.00
2017-07-18T17:23:39.710Z,2.53
2017-07-18T17:26:07.979Z,2.47
2017-07-18T17:28:36.235Z,2.43
2017-07-18T17:31:04.490Z,3.53
2017-07-18T17:42:35.480Z,2.43
2017-07-18T17:45:04.223Z,2.60
2017-07-18T17:47:32.472Z,2.13
2017-07-18T17:59:02.365Z,2.60
2017-07-18T18:01:30.654Z,2.37
2017-07-18T18:03:58.903Z,2.67
2017-07-18T18:06:27.255Z,2.70
2017-07-18T18:08:55.513Z,2.80
2017-07-18T18:11:23.761Z,2.90
2017-07-18T18:13:52.093Z,2.63
2017-07-18T18:16:21.142Z,2.40
2017-07-18T18:21:49.429Z,3.97
2017-07-18T18:24:18.021Z,3.23
2017-07-18T18:26:47.453Z,3.70
2017-07-18T18:29:16.515Z,2.93
2017-07-18T18:46:49.489Z,3.47
2017-07-18T18:55:19.245Z,3.60
2017-07-18T18:57:47.471Z,4.90
2017-07-18T19:00:38.277Z,3.50
2017-07-18T19:09:07.698Z,3.10
2017-07-18T19:14:38.621Z,3.20
2017-07-18T19:17:06.878Z,3.00
2017-07-18T19:19:35.193Z,3.10
2017-07-18T19:22:03.434Z,3.33
2017-07-18T19:24:31.675Z,3.60
2017-07-18T19:30:01.379Z,3.70
2017-07-18T19:32:29.624Z,4.27
2017-07-18T19:34:58.474Z,4.00
2017-07-18T19:37:26.771Z,4.00
2017-07-18T19:45:55.751Z,8.97
2017-07-18T19:48:25.262Z,5.60
2017-07-18T19:50:53.560Z,4.83
2017-07-18T19:53:21.820Z,4.43
2017-07-18T19:55:50.885Z,5.70
2017-07-18T20:10:21.433Z,6.70
2017-07-18T20:15:49.754Z,6.60
2017-07-18T20:18:17.996Z,5.20
2017-07-18T20:20:46.656Z,5.10
2017-07-18T20:26:14.856Z,6.20
2017-07-18T20:28:43.854Z,5.30
2017-07-18T20:31:12.109Z,5.23
2017-07-18T20:33:42.215Z,6.20
2017-07-18T20:39:11.228Z,5.10
2017-07-18T20:44:40.881Z,5.60
2017-07-18T20:47:09.902Z,5.20
2017-07-18T20:55:38.972Z,4.50
2017-07-18T20:58:07.210Z,4.50
2017-07-18T21:00:35.492Z,4.53
2017-07-18T21:03:03.770Z,4.17
2017-07-18T21:11:32.917Z,3.73
2017-07-18T21:14:01.174Z,4.17
2017-07-18T21:16:29.437Z,3.90
2017-07-18T21:18:58.463Z,5.47
2017-07-18T21:24:40.654Z,4.80
2017-07-18T21:27:10.395Z,4.50
2017-07-18T21:29:38.644Z,4.40
2017-07-18T21:35:13.377Z,4.30
2017-07-18T21:37:42.255Z,4.67
2017-07-18T21:40:10.499Z,4.60
2017-07-18T21:42:38.805Z,4.63
2017-07-18T21:45:07.080Z,4.60
2017-07-18T21:50:36.939Z,4.90
2017-07-18T21:53:05.200Z,4.33
2017-07-18T21:55:33.476Z,4.70
2017-07-18T21:58:02.778Z,5.10
2017-07-18T22:00:51.822Z,4.50
2017-07-18T22:06:20.257Z,5.57
2017-07-18T22:08:48.966Z,5.43
2017-07-18T22:11:17.212Z,5.77
2017-07-18T22:16:45.999Z,4.33
2017-07-18T22:19:15.100Z,4.90
2017-07-18T22:21:44.107Z,4.80
2017-07-18T22:24:13.099Z,5.00
2017-07-18T22:26:42.551Z,5.03
2017-07-18T22:29:10.813Z,5.60
2017-07-18T22:31:39.065Z,4.13
2017-07-18T22:34:37.702Z,4.97
2017-07-18T22:37:05.944Z,5.50
2017-07-18T22:42:41.420Z,5.37
2017-07-18T22:48:11.213Z,5.67
2017-07-18T22:50:39.464Z,4.80
2017-07-18T22:53:08.483Z,5.03
2017-07-18T22:55:36.860Z,4.67
2017-07-18T23:01:05.640Z,5.10
2017-07-18T23:03:34.736Z,4.73
2017-07-18T23:06:03.753Z,5.67
2017-07-18T23:08:32.005Z,4.27
2017-07-18T23:17:01.016Z,4.60
2017-07-18T23:19:29.349Z,5.07
2017-07-18T23:21:58.351Z,4.17
2017-07-18T23:27:39.979Z,4.00
2017-07-18T23:30:09.125Z,5.13
2017-07-18T23:32:38.148Z,4.47
2017-07-18T23:35:06.430Z,4.50
2017-07-18T23:37:34.679Z,4.03
2017-07-18T23:40:02.976Z,4.50
2017-07-18T23:42:39.318Z,4.57
2017-07-18T23:45:09.013Z,5.60
2017-07-18T23:47:38.022Z,6.13
2017-07-18T23:50:06.310Z,4.80
2017-07-18T23:55:35.507Z,5.07
2017-07-18T23:58:03.758Z,5.07
